Time;durP1;ratioP1;P1;durP2;ratioP2;P2;SDS_P1;SDS_P2;PMS_P1;PMS_P2;Temp;Humidity;BMP_temperature;BMP_pressure;BME280_temperature;BME280_humidity;BME280_pressure;Samples;Min_cycle;Max_cycle;Signal;HPM_P1;HPM_P2
2024/02/25 00:01:34;;;;;;;2.58;1.85;;;1.30;99.90;;;;;;5097841;28;20709;-59
2024/02/25 00:04:00;;;;;;;1.98;1.60;;;1.20;99.90;;;;;;5095072;28;20209;-58
2024/02/25 00:06:29;;;;;;;1.55;1.52;;;1.20;99.90;;;;;;5086001;28;20233;-58
2024/02/25 00:08:55;;;;;;;1.38;1.30;;;1.20;99.90;;;;;;5084115;28;20959;-59
2024/02/25 00:11:22;;;;;;;1.10;1.10;;;1.10;99.90;;;;;;5086837;28;20206;-59
2024/02/25 00:13:49;;;;;;;1.00;1.00;;;1.10;99.90;;;;;;5099089;28;20236;-59
2024/02/25 00:16:16;;;;;;;1.40;1.30;;;1.10;99.90;;;;;;5083298;28;20735;-56
2024/02/25 00:18:43;;;;;;;1.38;1.27;;;1.10;99.90;;;;;;5090492;28;20291;-59
2024/02/25 00:21:10;;;;;;;1.23;1.23;;;1.10;99.90;;;;;;5089606;28;20214;-59
2024/02/25 00:23:38;;;;;;;1.40;1.30;;;1.00;99.90;;;;;;5088891;28;21015;-59
2024/02/25 00:26:05;;;;;;;0.95;0.95;;;1.00;99.90;;;;;;5111577;22;20842;-59
2024/02/25 00:28:31;;;;;;;1.02;1.02;;;1.00;99.90;;;;;;5059153;28;20236;-60
2024/02/25 00:30:58;;;;;;;1.85;1.40;;;1.00;99.90;;;;;;5057409;28;20216;-62
2024/02/25 00:33:25;;;;;;;1.42;1.40;;;1.00;99.90;;;;;;5057576;28;20760;-60
2024/02/25 00:35:52;;;;;;;1.17;1.10;;;1.00;99.90;;;;;;5054347;28;20209;-59
2024/02/25 00:38:19;;;;;;;6.40;1.80;;;0.90;99.90;;;;;;5040467;28;20203;-57
2024/02/25 00:40:47;;;;;;;1.02;1.02;;;0.90;99.90;;;;;;5041418;28;20213;-62
2024/02/25 00:43:14;;;;;;;1.30;1.30;;;0.90;99.90;;;;;;5032268;28;20218;-58
2024/02/25 00:45:41;;;;;;;1.95;1.55;;;0.90;99.90;;;;;;5041106;28;20210;-58
2024/02/25 00:48:08;;;;;;;1.58;1.48;;;0.90;99.90;;;;;;5042767;28;20241;-60
2024/02/25 00:50:35;;;;;;;1.15;0.98;;;0.80;99.90;;;;;;5035678;28;20217;-57
2024/02/25 00:53:02;;;;;;;1.70;1.58;;;0.90;99.90;;;;;;5040570;28;20590;-60
2024/02/25 00:55:28;;;;;;;1.25;1.25;;;0.80;99.90;;;;;;5035591;28;20218;-61
2024/02/25 00:57:57;;;;;;;1.38;1.27;;;0.70;99.90;;;;;;5029832;28;20238;-57
2024/02/25 01:00:23;;;;;;;1.42;1.40;;;0.70;99.90;;;;;;5032508;28;20210;-60
2024/02/25 01:02:50;;;;;;;1.80;1.70;;;0.70;99.90;;;;;;5040532;28;20318;-56
2024/02/25 01:05:17;;;;;;;1.10;1.10;;;0.70;99.90;;;;;;5030392;28;20211;-63
2024/02/25 01:07:44;;;;;;;1.50;1.40;;;0.70;99.90;;;;;;5037893;28;20327;-59
2024/02/25 01:10:11;;;;;;;1.40;1.30;;;0.60;99.90;;;;;;5034799;28;20202;-62
2024/02/25 01:12:38;;;;;;;1.70;1.42;;;0.70;99.90;;;;;;5039887;28;20214;-61
2024/02/25 01:15:08;;;;;;;1.30;1.20;;;0.70;99.90;;;;;;5034174;28;20330;-61
2024/02/25 01:17:35;;;;;;;0.98;0.98;;;0.60;99.90;;;;;;5036446;28;20318;-61
2024/02/25 01:20:02;;;;;;;1.40;1.30;;;0.60;99.90;;;;;;5042903;28;20225;-60
2024/02/25 01:22:29;;;;;;;1.42;1.42;;;0.60;99.90;;;;;;5029434;28;20298;-61
2024/02/25 01:24:55;;;;;;;2.05;1.30;;;0.60;99.90;;;;;;5034184;28;20265;-60
2024/02/25 01:27:22;;;;;;;1.85;1.75;;;0.60;99.90;;;;;;5042761;28;20241;-60
2024/02/25 01:29:49;;;;;;;1.60;1.50;;;0.60;99.90;;;;;;5034212;28;20266;-60
2024/02/25 01:32:17;;;;;;;1.20;1.20;;;0.60;99.90;;;;;;5033002;28;20585;-61
2024/02/25 01:34:44;;;;;;;1.33;1.30;;;0.50;99.90;;;;;;5036023;28;20293;-60
2024/02/25 01:37:11;;;;;;;1.75;1.40;;;0.50;99.90;;;;;;5045494;28;20248;-61
2024/02/25 01:39:38;;;;;;;1.85;1.75;;;0.50;99.90;;;;;;5040312;28;20302;-60
2024/02/25 01:42:05;;;;;;;1.48;1.48;;;0.40;99.90;;;;;;5044185;28;20214;-59
2024/02/25 01:44:32;;;;;;;1.50;1.40;;;0.40;99.90;;;;;;5039257;28;20294;-61
2024/02/25 01:46:59;;;;;;;1.30;1.27;;;0.40;99.90;;;;;;5043858;28;20322;-60
2024/02/25 01:49:27;;;;;;;1.98;1.85;;;0.40;99.90;;;;;;5045323;28;20230;-59
2024/02/25 01:51:55;;;;;;;1.80;1.70;;;0.40;99.90;;;;;;5042362;28;20631;-61
2024/02/25 01:54:22;;;;;;;1.70;1.60;;;0.40;99.90;;;;;;5043173;28;20229;-59
2024/02/25 01:56:48;;;;;;;1.48;1.38;;;0.40;99.90;;;;;;5041339;28;20252;-59
2024/02/25 01:59:15;;;;;;;1.40;1.30;;;0.40;99.90;;;;;;5040727;28;20294;-58
2024/02/25 02:01:42;;;;;;;1.75;1.65;;;0.30;99.90;;;;;;5048147;28;20221;-61
2024/02/25 02:04:09;;;;;;;1.55;1.45;;;0.30;99.90;;;;;;5038663;28;21037;-61
2024/02/25 02:06:37;;;;;;;2.10;1.85;;;0.30;99.90;;;;;;5046083;28;20230;-61
2024/02/25 02:09:04;;;;;;;1.90;1.80;;;0.30;99.90;;;;;;5037853;28;20237;-61
2024/02/25 02:11:31;;;;;;;2.13;2.08;;;0.30;99.90;;;;;;5044898;28;20536;-59
2024/02/25 02:13:58;;;;;;;1.65;1.55;;;0.30;99.90;;;;;;5041702;28;20221;-59
2024/02/25 02:16:25;;;;;;;1.63;1.52;;;0.20;99.90;;;;;;5044296;28;20231;-61
2024/02/25 02:18:52;;;;;;;1.80;1.70;;;0.20;99.90;;;;;;5032968;28;20207;-61
2024/02/25 02:21:23;;;;;;;1.40;1.30;;;0.20;99.90;;;;;;5043605;28;20232;-63
2024/02/25 02:23:53;;;;;;;1.83;1.73;;;0.20;99.90;;;;;;5038309;28;20620;-60
2024/02/25 02:26:19;;;;;;;2.10;1.90;;;0.20;99.90;;;;;;5041083;28;20233;-61
2024/02/25 02:28:46;;;;;;;2.17;2.00;;;0.10;99.90;;;;;;5044571;28;20232;-61
2024/02/25 02:31:13;;;;;;;1.98;1.75;;;0.10;99.90;;;;;;5040090;28;20211;-60
2024/02/25 02:33:40;;;;;;;1.48;1.38;;;0.10;99.90;;;;;;5042472;28;20875;-59
2024/02/25 02:36:07;;;;;;;2.22;1.70;;;0.10;99.90;;;;;;5038726;28;20228;-60
2024/02/25 02:38:35;;;;;;;1.80;1.70;;;0.10;99.90;;;;;;5041061;28;20294;-60
2024/02/25 02:41:02;;;;;;;2.17;1.65;;;0.00;99.90;;;;;;5045591;28;20207;-61
2024/02/25 02:43:29;;;;;;;2.15;1.85;;;0.10;99.90;;;;;;5038807;28;20673;-60
2024/02/25 02:45:56;;;;;;;8.38;2.28;;;0.00;99.90;;;;;;5043691;28;20213;-59
2024/02/25 02:48:23;;;;;;;2.00;1.90;;;0.00;99.90;;;;;;5036533;28;20241;-62
2024/02/25 02:50:50;;;;;;;1.95;1.85;;;0.00;99.90;;;;;;5027258;28;20666;-60
2024/02/25 02:53:17;;;;;;;2.65;2.38;;;0.00;99.90;;;;;;5028067;28;20211;-61
2024/02/25 02:55:45;;;;;;;1.85;1.75;;;0.00;99.90;;;;;;5029066;28;20757;-61
2024/02/25 02:58:11;;;;;;;2.58;2.05;;;0.00;99.90;;;;;;5028893;28;20640;-61
2024/02/25 03:00:38;;;;;;;2.45;2.35;;;-0.10;99.90;;;;;;5028790;28;20215;-61
2024/02/25 03:03:05;;;;;;;2.53;2.22;;;-0.10;99.90;;;;;;5028189;28;20211;-61
2024/02/25 03:05:32;;;;;;;2.10;2.00;;;0.00;99.90;;;;;;5028743;28;20217;-60
2024/02/25 03:07:59;;;;;;;1.75;1.65;;;-0.10;99.90;;;;;;5028569;28;20235;-58
2024/02/25 03:10:26;;;;;;;1.98;1.85;;;-0.10;99.90;;;;;;5028229;28;20519;-59
2024/02/25 03:12:54;;;;;;;2.15;2.00;;;-0.10;99.90;;;;;;5028181;28;20284;-60
2024/02/25 03:15:21;;;;;;;2.08;1.90;;;-0.10;99.90;;;;;;5028632;28;20927;-61
2024/02/25 03:17:48;;;;;;;2.00;1.90;;;-0.20;99.90;;;;;;5028582;28;20227;-62
2024/02/25 03:20:16;;;;;;;1.98;1.75;;;-0.10;99.90;;;;;;5028428;28;20241;-59
2024/02/25 03:22:43;;;;;;;2.63;1.90;;;-0.20;99.90;;;;;;5027964;28;20221;-61
2024/02/25 03:25:12;;;;;;;1.70;1.60;;;-0.20;99.90;;;;;;5028680;28;20211;-60
2024/02/25 03:27:39;;;;;;;2.80;2.65;;;-0.20;99.90;;;;;;5028006;28;20751;-60
2024/02/25 03:30:10;;;;;;;2.08;1.92;;;-0.20;99.90;;;;;;5027855;28;20203;-60
2024/02/25 03:32:37;;;;;;;2.67;2.13;;;-0.20;99.90;;;;;;5027997;28;20230;-61
2024/02/25 03:35:05;;;;;;;2.00;1.90;;;-0.20;99.90;;;;;;5028405;28;20215;-58
2024/02/25 03:37:31;;;;;;;2.65;2.45;;;-0.20;99.90;;;;;;5028164;28;20266;-59
2024/02/25 03:39:58;;;;;;;2.20;2.10;;;-0.20;99.90;;;;;;5027882;28;20765;-60
2024/02/25 03:42:25;;;;;;;2.42;2.22;;;-0.20;99.90;;;;;;5027917;28;20217;-59
2024/02/25 03:44:52;;;;;;;2.60;2.40;;;-0.20;99.90;;;;;;5028225;28;20221;-61
2024/02/25 03:47:20;;;;;;;2.97;2.67;;;-0.30;99.90;;;;;;5027064;28;20235;-60
2024/02/25 03:49:47;;;;;;;2.65;2.45;;;-0.20;99.90;;;;;;5027294;28;20233;-60
2024/02/25 03:52:15;;;;;;;1.70;1.60;;;-0.20;99.90;;;;;;5027495;28;20727;-62
2024/02/25 03:54:46;;;;;;;1.88;1.65;;;-0.30;99.90;;;;;;5028196;28;20250;-61
2024/02/25 03:57:13;;;;;;;1.95;1.85;;;-0.30;99.90;;;;;;5028438;28;20317;-57
2024/02/25 03:59:40;;;;;;;3.45;2.60;;;-0.30;99.90;;;;;;5028232;28;20238;-60
2024/02/25 04:02:06;;;;;;;2.80;2.60;;;-0.30;99.90;;;;;;5027745;28;20745;-59
2024/02/25 04:04:34;;;;;;;1.90;1.80;;;-0.30;99.90;;;;;;5030511;28;20210;-59
2024/02/25 04:07:01;;;;;;;2.50;2.30;;;-0.30;99.90;;;;;;5032062;28;20231;-58
2024/02/25 04:09:29;;;;;;;2.35;2.15;;;-0.30;99.90;;;;;;5031541;28;20207;-57
2024/02/25 04:11:55;;;;;;;2.38;2.20;;;-0.30;99.90;;;;;;5031412;28;20215;-60
2024/02/25 04:14:22;;;;;;;7.20;2.75;;;-0.40;99.90;;;;;;5031732;28;20306;-60
2024/02/25 04:16:49;;;;;;;2.55;2.35;;;-0.40;99.90;;;;;;5031660;28;21027;-59
2024/02/25 04:19:16;;;;;;;3.00;2.28;;;-0.40;99.90;;;;;;5031344;28;20231;-60
2024/02/25 04:21:44;;;;;;;2.63;2.35;;;-0.40;99.90;;;;;;5031844;28;20246;-58
2024/02/25 04:24:11;;;;;;;2.03;1.92;;;-0.40;99.90;;;;;;5031359;28;20207;-60
2024/02/25 04:26:38;;;;;;;2.30;2.10;;;-0.40;99.90;;;;;;5028322;28;20246;-60
2024/02/25 04:29:04;;;;;;;2.05;1.95;;;-0.40;99.90;;;;;;5031792;28;20203;-58
2024/02/25 04:31:31;;;;;;;2.83;2.63;;;-0.50;99.90;;;;;;5031764;28;20297;-60
2024/02/25 04:33:58;;;;;;;2.25;2.13;;;-0.50;99.90;;;;;;5031220;28;20213;-60
2024/02/25 04:36:25;;;;;;;2.75;2.55;;;-0.50;99.90;;;;;;5031458;28;20953;-61
2024/02/25 04:38:53;;;;;;;2.30;2.10;;;-0.50;99.90;;;;;;5031202;28;20243;-59
2024/02/25 04:41:20;;;;;;;2.35;1.90;;;-0.50;99.90;;;;;;5031302;28;20214;-61
2024/02/25 04:43:47;;;;;;;2.92;2.72;;;-0.50;99.90;;;;;;5030818;28;20217;-60
2024/02/25 04:46:14;;;;;;;2.63;2.42;;;-0.50;99.90;;;;;;5031299;28;20607;-59
2024/02/25 04:48:41;;;;;;;2.45;2.25;;;-0.50;99.90;;;;;;5031170;28;20218;-56
2024/02/25 04:51:08;;;;;;;2.30;1.98;;;-0.50;99.90;;;;;;5030850;28;20214;-59
2024/02/25 04:53:37;;;;;;;3.08;2.88;;;-0.60;99.90;;;;;;5030479;28;20297;-61
2024/02/25 04:56:06;;;;;;;2.35;2.25;;;-0.60;99.90;;;;;;5031236;28;20217;-60
2024/02/25 04:58:33;;;;;;;2.00;1.85;;;-0.60;99.90;;;;;;5030984;28;20222;-60
2024/02/25 05:01:00;;;;;;;2.67;2.47;;;-0.60;99.90;;;;;;5031105;28;20294;-59
2024/02/25 05:03:27;;;;;;;1.73;1.73;;;-0.60;99.90;;;;;;5030700;28;20222;-59
2024/02/25 05:05:53;;;;;;;2.53;2.35;;;-0.60;99.90;;;;;;5030850;28;20250;-61
2024/02/25 05:08:20;;;;;;;4.53;2.10;;;-0.60;99.90;;;;;;5030768;28;20289;-59
2024/02/25 05:10:47;;;;;;;2.88;2.67;;;-0.60;99.90;;;;;;5030509;28;20207;-58
2024/02/25 05:13:15;;;;;;;3.92;2.40;;;-0.60;99.90;;;;;;5030043;28;20203;-58
2024/02/25 05:15:42;;;;;;;5.00;2.85;;;-0.70;99.90;;;;;;5029659;28;20281;-58
2024/02/25 05:18:09;;;;;;;2.45;2.25;;;-0.70;99.90;;;;;;5027963;28;20231;-57
2024/02/25 05:20:36;;;;;;;2.72;2.53;;;-0.60;99.90;;;;;;5029223;28;20229;-61
2024/02/25 05:23:03;;;;;;;2.25;2.05;;;-0.60;99.90;;;;;;5029258;28;20207;-60
2024/02/25 05:25:29;;;;;;;3.40;2.05;;;-0.60;99.90;;;;;;5030107;28;20721;-59
2024/02/25 05:27:56;;;;;;;2.42;2.22;;;-0.60;99.90;;;;;;5029768;28;20237;-59
2024/02/25 05:30:25;;;;;;;2.08;1.88;;;-0.60;99.90;;;;;;5029893;28;20920;-57
2024/02/25 05:32:52;;;;;;;3.30;2.17;;;-0.60;99.90;;;;;;5029917;28;20221;-60
2024/02/25 05:35:19;;;;;;;2.25;2.15;;;-0.70;99.90;;;;;;5030288;28;20660;-58
2024/02/25 05:37:45;;;;;;;2.38;2.03;;;-0.60;99.90;;;;;;5029137;28;20227;-61
2024/02/25 05:40:13;;;;;;;2.70;2.53;;;-0.70;99.90;;;;;;5028108;28;20227;-61
2024/02/25 05:42:40;;;;;;;2.15;2.00;;;-0.60;99.90;;;;;;5029540;28;20254;-60
2024/02/25 05:45:09;;;;;;;2.40;2.20;;;-0.60;99.90;;;;;;5029727;28;20206;-60
2024/02/25 05:47:37;;;;;;;3.17;2.88;;;-0.60;99.90;;;;;;5029824;28;20235;-61
2024/02/25 05:50:04;;;;;;;3.78;2.95;;;-0.60;99.90;;;;;;5029793;28;20294;-60
2024/02/25 05:52:31;;;;;;;3.22;2.38;;;-0.60;99.90;;;;;;5029609;28;20306;-59
2024/02/25 05:54:58;;;;;;;3.60;2.67;;;-0.60;99.90;;;;;;5030234;28;20310;-61
2024/02/25 05:57:25;;;;;;;3.13;2.58;;;-0.70;99.90;;;;;;5030000;28;20230;-57
2024/02/25 05:59:52;;;;;;;4.68;3.92;;;-0.70;99.90;;;;;;5029654;28;20223;-60
2024/02/25 06:02:18;;;;;;;4.20;3.05;;;-0.70;99.90;;;;;;5029172;28;20222;-61
2024/02/25 06:04:47;;;;;;;3.20;2.95;;;-0.70;99.90;;;;;;5029707;28;20211;-59
2024/02/25 06:07:13;;;;;;;3.03;2.80;;;-0.70;99.90;;;;;;5030035;28;20242;-61
2024/02/25 06:09:40;;;;;;;3.83;2.70;;;-0.70;99.90;;;;;;5029917;28;20294;-58
2024/02/25 06:12:07;;;;;;;3.45;3.10;;;-0.70;99.90;;;;;;5029208;28;20681;-60
2024/02/25 06:14:34;;;;;;;2.50;2.35;;;-0.70;99.90;;;;;;5029407;28;20214;-61
2024/02/25 06:17:02;;;;;;;2.95;2.40;;;-0.70;99.90;;;;;;5029388;28;20795;-61
2024/02/25 06:19:28;;;;;;;3.00;2.70;;;-0.70;99.90;;;;;;5029452;28;20293;-61
2024/02/25 06:21:57;;;;;;;2.95;2.72;;;-0.70;99.90;;;;;;5029100;28;20214;-59
2024/02/25 06:24:24;;;;;;;4.43;2.45;;;-0.70;99.90;;;;;;5029361;28;20215;-57
2024/02/25 06:26:50;;;;;;;5.32;2.55;;;-0.70;99.90;;;;;;5072764;22;20235;-61
2024/02/25 06:29:18;;;;;;;2.20;2.10;;;-0.70;99.90;;;;;;5081389;28;20290;-61
2024/02/25 06:31:45;;;;;;;2.45;1.80;;;-0.60;99.90;;;;;;5087009;28;20616;-61
2024/02/25 06:34:12;;;;;;;4.10;2.38;;;-0.60;99.90;;;;;;5080419;28;20217;-61
2024/02/25 06:36:39;;;;;;;2.45;2.08;;;-0.50;99.90;;;;;;5089268;28;20567;-61
2024/02/25 06:39:09;;;;;;;2.85;2.20;;;-0.50;99.90;;;;;;5089081;28;20783;-61
2024/02/25 06:41:36;;;;;;;2.70;2.50;;;-0.50;99.90;;;;;;5089648;28;20223;-60
2024/02/25 06:44:03;;;;;;;2.45;2.25;;;-0.50;99.90;;;;;;5083478;28;20213;-61
2024/02/25 06:46:30;;;;;;;2.38;2.28;;;-0.40;99.90;;;;;;5080618;28;20236;-61
2024/02/25 06:48:56;;;;;;;2.90;2.20;;;-0.40;99.90;;;;;;5088900;28;20208;-61
2024/02/25 06:51:26;;;;;;;2.17;2.08;;;-0.40;99.90;;;;;;5089026;28;20209;-61
2024/02/25 06:53:53;;;;;;;5.03;2.70;;;-0.30;99.90;;;;;;5088955;28;20232;-61
2024/02/25 06:56:22;;;;;;;3.00;2.80;;;-0.20;99.90;;;;;;5089023;28;20213;-61
2024/02/25 06:58:48;;;;;;;2.55;2.35;;;-0.20;99.90;;;;;;5088867;28;20303;-61
2024/02/25 07:01:16;;;;;;;3.22;2.33;;;-0.20;99.90;;;;;;5088833;28;20228;-61
2024/02/25 07:03:44;;;;;;;2.90;2.80;;;-0.10;99.90;;;;;;5088246;28;20208;-61
2024/02/25 07:06:11;;;;;;;5.68;1.90;;;0.00;99.90;;;;;;5088934;28;20212;-61
2024/02/25 07:08:38;;;;;;;3.08;2.78;;;0.00;99.90;;;;;;5089006;28;20212;-60
2024/02/25 07:11:15;;;;;;;3.42;3.15;;;0.10;99.90;;;;;;5088796;28;20208;-61
2024/02/25 07:13:43;;;;;;;3.00;2.80;;;0.10;99.90;;;;;;5088521;28;20209;-62
2024/02/25 07:16:10;;;;;;;3.05;2.80;;;0.20;99.90;;;;;;5088742;28;20223;-61
2024/02/25 07:18:37;;;;;;;4.30;2.65;;;0.30;99.90;;;;;;5088773;28;20212;-61
2024/02/25 07:21:06;;;;;;;2.65;2.45;;;0.30;99.90;;;;;;5088674;28;20231;-61
2024/02/25 07:23:33;;;;;;;2.88;2.60;;;0.40;99.90;;;;;;5088229;28;20263;-61
2024/02/25 07:26:00;;;;;;;2.58;2.40;;;0.40;99.90;;;;;;5088730;28;20204;-61
2024/02/25 07:28:27;;;;;;;2.92;2.67;;;0.50;99.90;;;;;;5088372;28;20838;-62
2024/02/25 07:30:55;;;;;;;3.22;2.92;;;0.50;99.90;;;;;;5088239;28;20296;-61
2024/02/25 07:33:22;;;;;;;2.30;2.20;;;0.60;99.90;;;;;;5088251;28;20219;-61
2024/02/25 07:35:49;;;;;;;3.15;2.95;;;0.70;99.90;;;;;;5088434;28;20711;-61
2024/02/25 07:38:16;;;;;;;3.78;3.40;;;0.80;99.90;;;;;;5089041;28;20235;-61
2024/02/25 07:40:43;;;;;;;3.22;2.92;;;0.90;99.90;;;;;;5092577;28;20244;-61
2024/02/25 07:43:10;;;;;;;2.47;1.90;;;1.00;99.90;;;;;;5083270;28;20209;-61
2024/02/25 07:45:36;;;;;;;3.33;2.50;;;1.10;99.90;;;;;;5090911;28;20206;-61
2024/02/25 07:48:05;;;;;;;3.03;2.80;;;1.20;99.90;;;;;;5092709;28;20314;-61
2024/02/25 07:50:32;;;;;;;2.90;2.70;;;1.30;99.90;;;;;;5092646;28;20204;-61
2024/02/25 07:52:59;;;;;;;2.60;2.42;;;1.40;99.90;;;;;;5092127;28;20205;-61
2024/02/25 07:55:26;;;;;;;2.60;2.40;;;1.50;99.90;;;;;;5092508;28;20235;-61
2024/02/25 07:57:52;;;;;;;2.20;1.95;;;1.60;99.90;;;;;;5092214;28;20233;-62
2024/02/25 08:00:20;;;;;;;3.05;2.85;;;1.70;99.90;;;;;;5092244;28;20229;-62
2024/02/25 08:02:47;;;;;;;3.22;3.03;;;1.90;99.90;;;;;;5091895;28;20300;-62
2024/02/25 08:05:15;;;;;;;3.20;2.97;;;2.00;99.90;;;;;;5092242;28;20231;-62
2024/02/25 08:07:44;;;;;;;3.35;3.15;;;2.10;99.90;;;;;;5092022;28;20722;-61
2024/02/25 08:10:11;;;;;;;5.60;4.40;;;2.30;99.90;;;;;;5091948;28;20216;-62
2024/02/25 08:12:39;;;;;;;4.65;4.10;;;2.40;99.90;;;;;;5091604;28;20208;-62
2024/02/25 08:15:07;;;;;;;4.47;4.07;;;2.50;99.90;;;;;;5092402;28;20286;-62
2024/02/25 08:17:36;;;;;;;5.43;4.05;;;2.60;99.90;;;;;;5092182;28;20581;-62
2024/02/25 08:20:03;;;;;;;5.07;4.30;;;2.70;99.90;;;;;;5091924;28;20721;-62
2024/02/25 08:22:32;;;;;;;4.05;3.75;;;2.80;99.90;;;;;;5091630;28;20220;-62
2024/02/25 08:24:59;;;;;;;3.28;2.97;;;2.80;99.90;;;;;;5091766;28;20575;-62
2024/02/25 08:27:28;;;;;;;3.90;3.60;;;2.90;99.90;;;;;;5091391;28;20321;-62
2024/02/25 08:29:55;;;;;;;4.45;3.95;;;3.00;99.90;;;;;;5091486;28;20209;-62
2024/02/25 08:32:22;;;;;;;6.07;4.72;;;3.20;99.90;;;;;;5091323;28;20216;-63
2024/02/25 08:34:53;;;;;;;4.00;3.60;;;3.20;99.90;;;;;;5091640;28;20209;-62
2024/02/25 08:37:20;;;;;;;9.40;8.40;;;3.40;99.90;;;;;;5091769;28;20616;-63
2024/02/25 08:39:48;;;;;;;6.93;6.03;;;3.60;99.90;;;;;;5091203;28;20209;-62
2024/02/25 08:42:15;;;;;;;6.38;5.50;;;3.70;99.90;;;;;;5090215;28;20219;-63
2024/02/25 08:44:42;;;;;;;6.13;4.85;;;3.80;99.90;;;;;;5091472;28;20205;-62
2024/02/25 08:47:09;;;;;;;6.68;5.80;;;4.00;99.90;;;;;;5091396;28;20748;-62
2024/02/25 08:49:37;;;;;;;6.57;5.93;;;4.10;99.90;;;;;;5090737;28;20208;-62
2024/02/25 08:52:04;;;;;;;6.05;5.45;;;4.20;99.90;;;;;;5091010;28;20597;-63
2024/02/25 08:54:31;;;;;;;7.55;6.95;;;4.40;99.90;;;;;;5075296;28;20202;-62
2024/02/25 08:56:59;;;;;;;5.13;4.63;;;4.50;99.90;;;;;;5070557;28;20217;-62
2024/02/25 08:59:26;;;;;;;6.05;5.35;;;4.60;99.90;;;;;;5070193;28;20403;-62
2024/02/25 09:01:54;;;;;;;5.70;5.13;;;4.70;99.90;;;;;;5069773;28;20799;-62
2024/02/25 09:04:24;;;;;;;6.20;5.60;;;4.90;99.90;;;;;;5059660;28;20742;-63
2024/02/25 09:06:51;;;;;;;8.55;7.55;;;5.00;99.90;;;;;;5058478;28;20226;-63
2024/02/25 09:09:18;;;;;;;6.78;6.13;;;5.20;99.90;;;;;;5063198;28;20652;-63
2024/02/25 09:11:45;;;;;;;6.57;6.00;;;5.30;99.90;;;;;;5070668;28;20216;-62
2024/02/25 09:14:13;;;;;;;5.85;5.35;;;5.50;99.90;;;;;;5069888;28;20351;-63
2024/02/25 09:16:40;;;;;;;4.68;4.30;;;5.70;99.90;;;;;;5060006;28;20317;-62
2024/02/25 09:19:07;;;;;;;3.30;3.00;;;5.80;99.90;;;;;;5059778;28;20206;-63
2024/02/25 09:21:34;;;;;;;3.67;3.47;;;5.90;99.90;;;;;;5063099;28;20233;-63
2024/02/25 09:24:02;;;;;;;2.25;2.15;;;6.10;99.90;;;;;;5052000;28;20206;-62
2024/02/25 09:26:28;;;;;;;1.88;1.70;;;6.20;99.90;;;;;;5053975;28;20269;-63
2024/02/25 09:28:55;;;;;;;2.60;2.08;;;6.30;99.90;;;;;;5055053;28;20202;-63
2024/02/25 09:31:23;;;;;;;1.90;1.75;;;6.30;99.90;;;;;;5067920;28;20205;-63
2024/02/25 09:33:52;;;;;;;2.22;1.75;;;6.40;99.90;;;;;;5059411;28;20210;-63
2024/02/25 09:36:23;;;;;;;1.73;1.63;;;6.50;99.90;;;;;;5054428;28;20452;-63
2024/02/25 09:38:49;;;;;;;1.95;1.50;;;6.60;99.90;;;;;;5052665;28;20217;-62
2024/02/25 09:41:19;;;;;;;1.80;1.70;;;6.60;99.90;;;;;;5053356;28;20233;-62
2024/02/25 09:43:46;;;;;;;4.38;3.90;;;6.70;99.90;;;;;;5064228;28;20216;-62
2024/02/25 09:46:16;;;;;;;1.50;1.38;;;6.70;99.90;;;;;;5054260;28;20288;-62
2024/02/25 09:48:50;;;;;;;2.25;1.40;;;6.70;99.90;;;;;;5068087;28;20205;-63
2024/02/25 09:51:18;;;;;;;2.00;1.85;;;6.80;99.90;;;;;;5062508;28;20264;-63
2024/02/25 09:53:46;;;;;;;3.10;2.80;;;6.90;99.90;;;;;;5056603;28;20217;-63
2024/02/25 09:56:13;;;;;;;1.55;1.45;;;7.00;99.90;;;;;;5069627;28;20216;-62
2024/02/25 09:58:40;;;;;;;1.23;1.20;;;7.10;99.90;;;;;;5068130;28;20205;-62
2024/02/25 10:01:07;;;;;;;1.85;1.30;;;7.10;99.90;;;;;;5067416;28;20229;-62
2024/02/25 10:03:35;;;;;;;2.17;1.48;;;7.20;99.90;;;;;;5067003;28;20593;-62
2024/02/25 10:06:04;;;;;;;2.75;2.10;;;7.10;99.90;;;;;;5066849;28;20298;-61
2024/02/25 10:08:43;;;;;;;1.00;0.90;;;7.20;99.90;;;;;;5067830;28;20214;-63
2024/02/25 10:11:11;;;;;;;1.10;1.10;;;7.30;99.90;;;;;;5075021;28;20196;-63
2024/02/25 10:13:38;;;;;;;1.60;1.50;;;7.60;99.90;;;;;;5067179;28;20245;-63
2024/02/25 10:16:05;;;;;;;1.20;1.10;;;7.70;99.90;;;;;;5061432;28;20590;-63
2024/02/25 10:18:32;;;;;;;1.00;1.00;;;7.80;99.90;;;;;;5071602;28;20217;-63
2024/02/25 10:21:07;;;;;;;0.90;0.90;;;7.90;99.90;;;;;;5076951;28;20228;-63
2024/02/25 10:23:35;;;;;;;1.00;1.00;;;8.10;99.90;;;;;;5072146;28;20225;-63
2024/02/25 10:26:13;;;;;;;2.85;1.70;;;8.30;99.90;;;;;;5072003;28;20206;-62
2024/02/25 10:28:40;;;;;;;1.40;1.30;;;8.50;99.90;;;;;;5061601;28;20213;-62
2024/02/25 10:31:08;;;;;;;0.80;0.80;;;8.70;99.90;;;;;;5076880;28;20443;-62
2024/02/25 10:33:35;;;;;;;1.13;1.03;;;8.80;99.90;;;;;;5061207;28;20461;-63
2024/02/25 10:36:08;;;;;;;1.10;1.00;;;8.90;99.90;;;;;;5065461;28;20807;-62
2024/02/25 10:38:37;;;;;;;2.00;0.73;;;9.00;99.90;;;;;;5076701;28;20462;-62
2024/02/25 10:41:06;;;;;;;0.70;0.70;;;9.20;99.90;;;;;;5075388;28;20486;-63
2024/02/25 10:43:34;;;;;;;0.80;0.80;;;9.50;99.90;;;;;;5069512;28;20460;-62
2024/02/25 10:46:05;;;;;;;2.17;1.27;;;9.80;99.90;;;;;;5062984;28;20449;-62
2024/02/25 10:48:33;;;;;;;0.80;0.80;;;10.00;99.90;;;;;;5069396;28;20455;-62
2024/02/25 10:51:01;;;;;;;2.10;1.90;;;10.10;99.90;;;;;;5075889;28;20832;-62
2024/02/25 10:53:31;;;;;;;0.53;0.53;;;10.30;99.90;;;;;;5074177;28;20539;-62
2024/02/25 10:55:59;;;;;;;0.80;0.70;;;10.40;99.90;;;;;;5051228;28;20540;-62
2024/02/25 10:58:27;;;;;;;0.73;0.60;;;10.40;99.90;;;;;;5066385;28;20479;-62
2024/02/25 11:00:55;;;;;;;0.93;0.90;;;10.40;99.70;;;;;;5055363;28;20516;-62
2024/02/25 11:03:22;;;;;;;0.70;0.70;;;10.50;99.90;;;;;;5072512;28;20906;-63
2024/02/25 11:05:49;;;;;;;2.33;0.87;;;10.70;99.90;;;;;;5073624;28;20991;-63
2024/02/25 11:08:29;;;;;;;0.90;0.90;;;10.90;99.50;;;;;;5052750;28;20472;-62
2024/02/25 11:10:58;;;;;;;0.67;0.67;;;10.90;99.40;;;;;;5072930;28;20443;-62
2024/02/25 11:13:26;;;;;;;2.33;1.00;;;10.80;98.60;;;;;;5061983;28;20452;-62
2024/02/25 11:15:55;;;;;;;0.70;0.50;;;10.70;99.10;;;;;;5061687;28;20562;-62
2024/02/25 11:18:26;;;;;;;0.33;0.33;;;10.60;99.00;;;;;;5060923;28;20494;-62
2024/02/25 11:21:05;;;;;;;1.10;0.47;;;10.40;98.50;;;;;;5061352;28;20489;-62
2024/02/25 11:23:45;;;;;;;0.80;0.80;;;10.30;98.60;;;;;;5073403;28;20496;-62
2024/02/25 11:26:37;;;;;;;0.70;0.70;;;10.00;99.60;;;;;;5062169;28;20833;-62
2024/02/25 11:29:22;;;;;;;0.60;0.60;;;9.90;99.90;;;;;;5061935;28;20444;-62
2024/02/25 11:31:51;;;;;;;0.60;0.60;;;9.80;99.90;;;;;;5067870;28;20440;-62
2024/02/25 11:34:21;;;;;;;0.60;0.47;;;9.90;99.90;;;;;;5065725;28;20531;-63
2024/02/25 11:36:53;;;;;;;0.90;0.90;;;10.00;99.40;;;;;;5054630;28;20473;-63
2024/02/25 11:39:26;;;;;;;0.60;0.57;;;10.10;99.70;;;;;;5068128;28;20954;-62
2024/02/25 11:41:55;;;;;;;0.40;0.33;;;10.40;99.50;;;;;;5067578;28;20487;-63
2024/02/25 11:44:24;;;;;;;0.77;0.50;;;10.70;99.00;;;;;;5055933;28;20436;-63
2024/02/25 11:46:54;;;;;;;0.60;0.60;;;10.80;97.80;;;;;;5055527;28;20460;-62
2024/02/25 11:49:21;;;;;;;1.00;0.63;;;10.90;97.30;;;;;;5060778;28;20451;-62
2024/02/25 11:51:48;;;;;;;1.03;0.50;;;11.10;98.40;;;;;;5063988;28;20442;-63
2024/02/25 11:54:15;;;;;;;0.30;0.30;;;11.30;97.60;;;;;;5059385;28;20825;-62
2024/02/25 11:56:43;;;;;;;0.70;0.60;;;11.40;96.60;;;;;;5076066;28;20472;-63
2024/02/25 11:59:10;;;;;;;0.63;0.50;;;11.60;97.50;;;;;;5070577;28;20444;-63
2024/02/25 12:01:38;;;;;;;0.63;0.50;;;11.90;97.20;;;;;;5067291;28;20494;-62
2024/02/25 12:04:05;;;;;;;0.83;0.83;;;12.10;96.80;;;;;;5066981;28;20463;-63
2024/02/25 12:06:34;;;;;;;1.17;0.47;;;12.40;96.40;;;;;;5059310;28;21342;-62
2024/02/25 12:09:01;;;;;;;1.20;0.57;;;12.50;96.10;;;;;;5064527;28;20505;-62
2024/02/25 12:11:28;;;;;;;0.40;0.40;;;12.40;95.00;;;;;;5060048;28;20457;-63
2024/02/25 12:14:03;;;;;;;0.40;0.40;;;12.30;94.70;;;;;;5060240;28;20459;-62
2024/02/25 12:16:30;;;;;;;0.53;0.53;;;12.00;95.70;;;;;;5053083;28;20467;-62
2024/02/25 12:18:58;;;;;;;0.40;0.40;;;11.90;95.10;;;;;;5079030;28;20447;-62
2024/02/25 12:21:25;;;;;;;0.70;0.50;;;11.80;95.20;;;;;;5069552;28;20491;-62
2024/02/25 12:23:56;;;;;;;0.60;0.60;;;11.70;96.30;;;;;;5062193;28;20452;-62
2024/02/25 12:29:09;;;;;;;0.50;0.50;;;11.80;96.40;;;;;;5101592;27;21051;-60
2024/02/25 12:31:36;;;;;;;0.30;0.30;;;11.90;95.60;;;;;;5096356;28;20442;-60
2024/02/25 12:34:03;;;;;;;0.80;0.50;;;12.10;96.00;;;;;;5095517;28;20454;-60
2024/02/25 12:36:30;;;;;;;0.67;0.40;;;12.40;94.50;;;;;;5097219;28;20447;-60
2024/02/25 12:38:57;;;;;;;0.40;0.40;;;12.50;94.40;;;;;;5094238;28;20455;-60
2024/02/25 12:41:23;;;;;;;0.70;0.40;;;12.60;94.90;;;;;;5093838;28;20447;-60
2024/02/25 12:43:52;;;;;;;1.40;0.60;;;12.60;94.10;;;;;;5088755;28;20847;-60
2024/02/25 12:46:21;;;;;;;0.70;0.53;;;12.60;95.60;;;;;;5088225;28;21021;-60
2024/02/25 12:48:48;;;;;;;0.50;0.40;;;12.70;95.30;;;;;;5095532;28;20501;-62
2024/02/25 12:51:17;;;;;;;0.43;0.37;;;12.60;94.40;;;;;;5089786;28;20447;-59
2024/02/25 12:53:45;;;;;;;0.33;0.30;;;12.50;94.90;;;;;;5093333;28;20462;-60
2024/02/25 12:56:13;;;;;;;0.47;0.47;;;12.50;95.10;;;;;;5095549;28;20540;-60
2024/02/25 12:58:42;;;;;;;0.60;0.60;;;12.60;94.90;;;;;;5098924;28;20858;-62